Brooklyn, NY (11215)

8:25 AM EST on February 27, 2015 (GMT -0500)
Park Slope | Change Station
CLOSE
Current Station
Personal Weather Station
Location: New York, NY
Elevation: 160 ft
Nearby Weather Stations

Elev 160 ft 40.66 °N, 73.98 °W | Updated 1 minute ago

Overcast
Overcast
22.2 °F
Feels Like 22 °F
N
2.0
Wind Variable Wind from NW
Gusts 3.0 mph

Today
High -- | Low -- °F
--% Chance of Precip.
Yesterday
High -- | Low -- °F
Precip. -- in
6:33 AM 5:44 PM
Waxing Gibbous, 68% visible
Pressure 30.35 in
Visibility 10.0 miles
Clouds Few 5000 ft
Windchill 22 °F
Dew Point 9 °F
Humidity 57%
Rainfall 0.00 in
Snow Depth Not available.
UV 1 out of 12
Pollen .50 out of 12
Air Quality Not available.
Flu Activity Not available.
METAR KNYC 271251Z AUTO VRB03KT 10SM FEW050 M08/M16 A3037 RMK AO2 SLP276 T10781161 $

More Conditions Fewer Conditions

Pressure 30.35 in
Visibility 10.0 miles
Clouds Few 5000 ft
Windchill 22 °F
Dew Point 9 °F
Humidity 57%
Rainfall 0.00 in
Snow Depth Not available.
UV 1 out of 12
Pollen .50 out of 12
Air Quality Not available.
Flu Activity Not available.
METAR KNYC 271251Z AUTO VRB03KT 10SM FEW050 M08/M16 A3037 RMK AO2 SLP276 T10781161 $

More Conditions Fewer Conditions

10-Day Weather Forecast

Almanac

Astronomy

Feb. 27, 2015 Rise Set
Actual Time
Civil Twilight
Nautical Twilight
Astronomical Twilight
Moon
Length of Visible Light
Length of Day
Tomorrow will be .
, % of the Moon is Illuminated

Today's Extremes

State Highs State Lows

Community

WunderPhotos

Upload Photos

1,800,673 photos uploaded!

WunderBlogs® & News

Nearby

Air Quality

  Air Quality AQ Index Pollutant
Not available.

Snow Depth

Station Depth Elevation

Earthquake Activity

City Distance Mag. Time & Date
Minimum magnitude displayed is 2.5.

Coastal Water Temperatures

Place Temperature

Nearby Weather Stations